createdAt,value
2019-05-30T00:01:39.076Z,1.60
2019-05-30T00:04:09.229Z,1.60
2019-05-30T00:06:39.220Z,1.80
2019-05-30T00:09:10.643Z,1.60
2019-05-30T00:11:40.766Z,2.07
2019-05-30T00:14:12.841Z,1.90
2019-05-30T00:16:43.256Z,1.90
2019-05-30T00:19:13.375Z,1.90
2019-05-30T00:21:43.438Z,1.90
2019-05-30T00:24:13.633Z,1.90
2019-05-30T00:26:43.974Z,1.83
2019-05-30T00:29:14.465Z,1.70
2019-05-30T00:31:44.665Z,2.00
2019-05-30T00:34:14.733Z,2.30
2019-05-30T00:36:45.219Z,1.63
2019-05-30T00:39:15.459Z,1.80
2019-05-30T00:41:45.803Z,1.80
2019-05-30T00:44:16.106Z,2.00
2019-05-30T00:46:46.913Z,1.80
2019-05-30T00:49:17.053Z,1.90
2019-05-30T00:51:47.186Z,1.83
2019-05-30T00:54:17.585Z,2.20
2019-05-30T00:56:47.950Z,1.90
2019-05-30T00:59:17.952Z,2.00
2019-05-30T01:01:48.132Z,2.13
2019-05-30T01:04:18.538Z,2.20
2019-05-30T01:06:48.780Z,2.20
2019-05-30T01:09:18.790Z,2.00
2019-05-30T01:11:49.474Z,2.10
2019-05-30T01:14:19.447Z,2.30
2019-05-30T01:16:49.731Z,2.40
2019-05-30T01:19:20.215Z,1.93
2019-05-30T01:21:51.895Z,2.30
2019-05-30T01:24:22.160Z,2.10
2019-05-30T01:26:52.485Z,2.27
2019-05-30T01:29:22.460Z,2.40
2019-05-30T01:31:52.636Z,2.47
2019-05-30T01:34:22.515Z,2.50
2019-05-30T01:36:52.719Z,2.30
2019-05-30T01:39:22.983Z,2.70
2019-05-30T01:41:53.231Z,2.43
2019-05-30T01:44:23.247Z,2.30
2019-05-30T01:46:53.542Z,2.23
2019-05-30T01:49:23.503Z,2.13
2019-05-30T01:51:53.492Z,2.10
2019-05-30T01:54:23.885Z,2.03
2019-05-30T01:56:54.332Z,2.10
2019-05-30T01:59:24.268Z,2.50
2019-05-30T02:01:54.611Z,1.97
2019-05-30T02:04:25.159Z,1.83
2019-05-30T02:06:55.268Z,2.00
2019-05-30T02:09:25.503Z,2.10
2019-05-30T02:11:55.764Z,1.90
2019-05-30T02:14:25.904Z,2.10
2019-05-30T02:16:56.080Z,2.30
2019-05-30T02:19:26.654Z,2.23
2019-05-30T02:21:57.065Z,1.90
2019-05-30T02:24:27.181Z,2.13
2019-05-30T02:26:57.307Z,2.10
2019-05-30T02:29:27.611Z,2.20
2019-05-30T02:31:57.986Z,2.20
2019-05-30T02:34:28.478Z,1.87
2019-05-30T02:36:58.579Z,2.03
2019-05-30T02:39:28.856Z,2.27
2019-05-30T02:42:00.802Z,2.60
2019-05-30T02:44:31.759Z,2.30
2019-05-30T02:47:03.576Z,2.57
2019-05-30T02:49:34.383Z,2.70
2019-05-30T02:52:06.725Z,2.60
2019-05-30T02:54:36.634Z,2.40
2019-05-30T02:57:07.881Z,2.53
2019-05-30T02:59:38.860Z,3.10
2019-05-30T03:02:14.038Z,2.57
2019-05-30T03:04:40.677Z,2.53
2019-05-30T03:07:12.536Z,2.60
2019-05-30T03:09:43.525Z,2.73
2019-05-30T03:12:14.010Z,2.60
2019-05-30T03:14:46.131Z,3.00
2019-05-30T03:17:16.977Z,3.40
2019-05-30T03:19:46.985Z,3.37
2019-05-30T03:22:17.692Z,3.07
2019-05-30T03:24:48.187Z,3.37
2019-05-30T03:27:18.702Z,3.40
2019-05-30T03:29:51.082Z,3.47
2019-05-30T03:34:53.567Z,3.17
2019-05-30T03:37:29.285Z,3.10
2019-05-30T03:39:55.995Z,3.07
2019-05-30T03:42:26.001Z,3.47
2019-05-30T03:44:57.449Z,3.20
2019-05-30T03:47:30.756Z,3.57
2019-05-30T03:50:04.601Z,3.50
2019-05-30T03:52:35.198Z,3.00
2019-05-30T03:55:06.986Z,3.80
2019-05-30T03:57:44.106Z,3.50
2019-05-30T04:00:21.874Z,3.30
2019-05-30T04:02:58.966Z,3.43
2019-05-30T04:05:36.613Z,4.23
2019-05-30T04:08:09.955Z,3.50
2019-05-30T04:10:44.051Z,3.90
2019-05-30T04:13:24.460Z,3.60
2019-05-30T04:15:54.508Z,3.87
2019-05-30T04:18:25.093Z,3.60
2019-05-30T04:20:55.379Z,4.30
2019-05-30T04:23:25.757Z,3.80
2019-05-30T04:26:00.170Z,3.80
2019-05-30T04:28:28.206Z,4.37
2019-05-30T04:30:58.979Z,3.80
2019-05-30T04:33:33.564Z,3.70
2019-05-30T04:36:01.376Z,4.00
2019-05-30T04:38:31.605Z,4.13
2019-05-30T04:41:01.910Z,3.60
2019-05-30T04:43:34.108Z,4.03
2019-05-30T04:46:04.401Z,4.30
2019-05-30T04:48:34.509Z,3.60
2019-05-30T04:51:06.418Z,4.30
2019-05-30T04:53:41.084Z,3.80
2019-05-30T04:56:12.674Z,4.17
2019-05-30T04:58:50.883Z,4.20
2019-05-30T05:01:22.542Z,4.40
2019-05-30T05:03:59.545Z,4.40
2019-05-30T05:06:31.625Z,4.30
2019-05-30T05:09:02.339Z,4.20
2019-05-30T05:11:33.018Z,4.40
2019-05-30T05:14:03.950Z,3.80
2019-05-30T05:16:36.272Z,4.10
2019-05-30T05:19:06.719Z,4.27
2019-05-30T05:21:36.679Z,4.00
2019-05-30T05:24:06.816Z,4.60
2019-05-30T05:26:37.669Z,4.80
2019-05-30T05:29:07.727Z,4.70
2019-05-30T05:31:38.427Z,4.67
2019-05-30T05:34:09.012Z,4.70
2019-05-30T05:36:38.932Z,4.60
2019-05-30T05:39:10.583Z,4.57
2019-05-30T05:41:40.804Z,4.60
2019-05-30T05:44:11.387Z,4.27
2019-05-30T05:46:41.797Z,4.70
2019-05-30T05:49:12.374Z,4.93
2019-05-30T05:51:42.611Z,4.60
2019-05-30T05:54:12.643Z,4.70
2019-05-30T05:56:43.055Z,4.40
2019-05-30T05:59:14.754Z,4.60
2019-05-30T06:01:44.878Z,4.73
2019-05-30T06:04:25.942Z,4.80
2019-05-30T06:06:56.088Z,4.67
2019-05-30T06:09:26.281Z,5.00
2019-05-30T06:11:56.899Z,4.23
2019-05-30T06:14:28.163Z,4.90
2019-05-30T06:17:00.752Z,4.20
2019-05-30T06:19:45.391Z,4.10
2019-05-30T06:22:02.837Z,4.00
2019-05-30T06:24:33.514Z,4.40
2019-05-30T06:27:03.900Z,4.40
2019-05-30T06:29:36.049Z,4.60
2019-05-30T06:32:06.505Z,4.30
2019-05-30T06:34:39.368Z,4.40
2019-05-30T06:37:11.895Z,4.40
2019-05-30T06:39:40.544Z,4.27
2019-05-30T06:42:10.555Z,4.17
2019-05-30T06:44:40.701Z,3.87
2019-05-30T06:47:10.939Z,4.07
2019-05-30T06:49:41.387Z,4.03
2019-05-30T06:52:12.106Z,4.47
2019-05-30T06:54:42.481Z,4.40
2019-05-30T06:57:12.695Z,4.40
2019-05-30T06:59:42.730Z,4.27
2019-05-30T07:02:13.383Z,4.57
2019-05-30T07:04:51.593Z,4.87
2019-05-30T07:07:15.577Z,4.30
2019-05-30T07:09:46.149Z,4.90
2019-05-30T07:12:16.228Z,4.50
2019-05-30T07:14:46.345Z,4.40
2019-05-30T07:17:16.649Z,4.73
2019-05-30T07:19:46.629Z,5.00
2019-05-30T07:22:16.887Z,5.90
2019-05-30T07:24:47.322Z,5.17
2019-05-30T07:27:17.757Z,4.53
2019-05-30T07:29:48.071Z,4.60
2019-05-30T07:32:18.552Z,5.30
2019-05-30T07:34:48.643Z,4.70
2019-05-30T07:37:18.953Z,5.70
2019-05-30T07:39:49.244Z,5.10
2019-05-30T07:42:19.340Z,5.20
2019-05-30T07:44:49.944Z,5.23
2019-05-30T07:47:20.226Z,5.27
2019-05-30T07:49:50.347Z,4.87
2019-05-30T07:52:20.462Z,4.80
2019-05-30T07:54:50.815Z,4.90
2019-05-30T07:57:20.984Z,5.00
2019-05-30T07:59:51.504Z,5.43
2019-05-30T08:02:21.610Z,5.13
2019-05-30T08:04:51.575Z,4.63
2019-05-30T08:07:21.692Z,4.53
2019-05-30T08:09:51.806Z,4.90
2019-05-30T08:12:21.796Z,5.20
2019-05-30T08:14:52.608Z,4.73
2019-05-30T08:17:22.805Z,4.83
2019-05-30T08:19:53.078Z,5.30
2019-05-30T08:22:23.145Z,5.40
2019-05-30T08:24:54.488Z,5.60
2019-05-30T08:27:24.601Z,5.10
2019-05-30T08:29:55.155Z,4.97
2019-05-30T08:32:25.330Z,4.73
2019-05-30T08:34:55.787Z,4.90
2019-05-30T08:37:28.927Z,4.93
2019-05-30T08:39:59.295Z,4.73
2019-05-30T08:42:29.611Z,4.57
2019-05-30T08:45:00.706Z,4.80
2019-05-30T08:47:31.771Z,4.90
2019-05-30T08:50:01.941Z,5.60
2019-05-30T08:52:32.431Z,4.50
2019-05-30T08:55:04.119Z,5.00
2019-05-30T08:57:35.006Z,4.73
2019-05-30T09:00:06.023Z,5.43
2019-05-30T09:02:36.643Z,4.67
2019-05-30T09:05:07.905Z,4.67
2019-05-30T09:07:38.357Z,4.87
2019-05-30T09:10:09.752Z,4.87
2019-05-30T09:12:42.800Z,5.10
2019-05-30T09:15:13.052Z,4.33
2019-05-30T09:17:44.749Z,5.30
2019-05-30T09:20:15.812Z,5.07
2019-05-30T09:22:46.007Z,5.10
2019-05-30T09:25:16.467Z,4.67
2019-05-30T09:27:46.774Z,5.70
2019-05-30T09:30:18.278Z,5.27
2019-05-30T09:32:48.964Z,5.50
2019-05-30T09:35:20.059Z,7.07
2019-05-30T09:37:50.269Z,7.07
2019-05-30T09:40:21.372Z,7.87
2019-05-30T09:42:51.567Z,9.10
2019-05-30T09:45:22.120Z,8.40
2019-05-30T09:47:53.039Z,9.37
2019-05-30T09:50:23.952Z,10.63
2019-05-30T09:52:54.067Z,11.60
2019-05-30T09:55:25.597Z,10.80
2019-05-30T09:57:55.522Z,10.37
2019-05-30T10:00:26.227Z,11.77
2019-05-30T10:02:58.335Z,11.77
2019-05-30T10:05:28.526Z,11.83
2019-05-30T10:07:58.629Z,11.67
2019-05-30T10:10:30.234Z,12.07
2019-05-30T10:13:00.255Z,12.20
2019-05-30T10:15:30.537Z,12.40
2019-05-30T10:18:00.953Z,12.40
2019-05-30T10:20:31.510Z,11.97
2019-05-30T10:23:03.704Z,14.70
2019-05-30T10:25:33.783Z,13.50
2019-05-30T10:28:03.829Z,13.37
2019-05-30T10:30:34.661Z,13.53
2019-05-30T10:33:04.979Z,14.73
2019-05-30T10:35:35.440Z,14.03
2019-05-30T10:38:05.644Z,13.80
2019-05-30T10:40:36.964Z,12.93
2019-05-30T10:43:08.520Z,13.10
2019-05-30T10:45:39.226Z,13.57
2019-05-30T10:48:09.503Z,13.53
2019-05-30T10:50:39.652Z,14.10
2019-05-30T10:53:09.828Z,14.60
2019-05-30T10:55:41.097Z,14.37
2019-05-30T10:58:11.545Z,15.07
2019-05-30T11:00:48.976Z,15.67
2019-05-30T11:03:20.260Z,15.40
2019-05-30T11:05:59.681Z,17.07
2019-05-30T11:08:32.679Z,15.87
2019-05-30T11:11:03.610Z,16.03
2019-05-30T11:13:33.678Z,15.70
2019-05-30T11:16:04.236Z,17.77
2019-05-30T11:18:34.635Z,17.33
2019-05-30T11:21:05.086Z,16.60
2019-05-30T11:23:35.125Z,16.83
2019-05-30T11:26:06.119Z,16.23
2019-05-30T11:28:36.255Z,16.27
2019-05-30T11:31:06.358Z,16.50
2019-05-30T11:33:36.524Z,18.53
2019-05-30T11:36:06.731Z,17.90
2019-05-30T11:38:36.619Z,17.17
2019-05-30T11:41:06.698Z,18.67
2019-05-30T11:43:37.102Z,18.30
2019-05-30T11:46:07.165Z,17.73
2019-05-30T11:48:37.421Z,19.03
2019-05-30T11:51:09.132Z,17.97
2019-05-30T11:53:39.641Z,19.07
2019-05-30T11:56:09.848Z,19.23
2019-05-30T11:58:39.872Z,18.43
2019-05-30T12:01:09.830Z,19.63
2019-05-30T12:03:40.171Z,18.40
2019-05-30T12:06:10.686Z,19.60
2019-05-30T12:08:41.147Z,19.40
2019-05-30T12:11:11.851Z,18.70
2019-05-30T12:13:41.939Z,19.10
2019-05-30T12:16:12.311Z,20.40
2019-05-30T12:18:42.473Z,19.77
2019-05-30T12:21:12.980Z,18.67
2019-05-30T12:23:43.154Z,19.00
2019-05-30T12:26:13.460Z,19.73
2019-05-30T12:28:49.917Z,19.10
2019-05-30T12:31:25.063Z,20.00
2019-05-30T12:33:56.222Z,18.13
2019-05-30T12:36:26.727Z,19.77
2019-05-30T12:38:57.026Z,19.90
2019-05-30T12:41:27.526Z,19.23
2019-05-30T12:43:59.132Z,20.20
2019-05-30T12:46:29.608Z,19.47
2019-05-30T12:48:59.958Z,19.90
2019-05-30T12:51:30.079Z,20.63
2019-05-30T12:54:00.515Z,20.00
2019-05-30T12:56:31.059Z,19.00
2019-05-30T12:59:01.195Z,18.50
2019-05-30T13:01:43.618Z,18.00
2019-05-30T13:04:13.974Z,16.53
2019-05-30T13:06:44.090Z,15.67
2019-05-30T13:09:14.446Z,16.40
2019-05-30T13:11:44.915Z,17.07
2019-05-30T13:14:15.050Z,16.80
2019-05-30T13:16:45.551Z,16.60
2019-05-30T13:19:15.834Z,16.03
2019-05-30T13:21:46.213Z,16.73
2019-05-30T13:24:20.624Z,17.40
2019-05-30T13:26:51.317Z,14.77
2019-05-30T13:29:25.900Z,15.93
2019-05-30T13:31:58.424Z,14.30
2019-05-30T13:34:31.443Z,14.87
2019-05-30T13:37:03.269Z,14.30
2019-05-30T13:39:33.325Z,14.27
2019-05-30T13:42:03.783Z,13.63
2019-05-30T13:44:34.306Z,13.40
2019-05-30T13:47:32.985Z,13.33
2019-05-30T13:50:05.353Z,13.10
2019-05-30T13:52:35.374Z,13.40
2019-05-30T13:55:08.431Z,13.03
2019-05-30T13:57:38.639Z,11.97
2019-05-30T14:00:10.615Z,12.03
2019-05-30T14:02:41.677Z,11.70
2019-05-30T14:05:11.836Z,12.30
2019-05-30T14:07:42.542Z,11.30
2019-05-30T14:10:14.265Z,11.33
2019-05-30T14:13:07.512Z,12.27
2019-05-30T14:15:40.413Z,12.00
2019-05-30T14:18:11.194Z,11.07
2019-05-30T14:20:41.305Z,11.63
2019-05-30T14:23:12.189Z,9.67
2019-05-30T14:26:20.892Z,10.80
2019-05-30T14:28:51.105Z,10.97
2019-05-30T14:31:21.068Z,11.37
2019-05-30T14:33:51.472Z,10.47
2019-05-30T14:36:21.768Z,9.83
2019-05-30T14:39:09.075Z,9.70
2019-05-30T14:41:39.829Z,9.67
2019-05-30T14:44:09.867Z,9.80
2019-05-30T14:46:40.797Z,10.13
2019-05-30T14:49:11.327Z,10.13
2019-05-30T14:51:41.719Z,9.40
2019-05-30T14:54:14.003Z,10.10
2019-05-30T14:56:44.781Z,8.80
2019-05-30T14:59:14.967Z,9.23
2019-05-30T15:01:45.073Z,9.47
2019-05-30T15:04:17.840Z,9.30
2019-05-30T15:06:48.307Z,8.43
2019-05-30T15:09:25.785Z,9.40
2019-05-30T15:11:51.171Z,9.70
2019-05-30T15:14:21.735Z,8.00
2019-05-30T15:16:55.404Z,8.13
2019-05-30T15:19:25.456Z,8.93
2019-05-30T15:21:55.778Z,7.80
2019-05-30T15:24:25.939Z,9.10
2019-05-30T15:26:55.961Z,8.73
2019-05-30T15:29:26.046Z,8.33
2019-05-30T15:32:29.009Z,8.13
2019-05-30T15:34:58.523Z,8.40
2019-05-30T15:37:29.296Z,8.43
2019-05-30T15:39:59.315Z,8.20
2019-05-30T15:42:29.495Z,8.43
2019-05-30T15:44:59.732Z,7.93
2019-05-30T15:47:32.292Z,8.10
2019-05-30T15:50:02.293Z,8.17
2019-05-30T15:52:34.260Z,7.53
2019-05-30T15:55:04.454Z,8.43
2019-05-30T15:57:34.739Z,7.37
2019-05-30T16:00:07.491Z,7.50
2019-05-30T16:02:37.771Z,8.17
2019-05-30T16:05:08.226Z,7.50
2019-05-30T16:07:38.943Z,7.73
2019-05-30T16:10:10.924Z,7.90
2019-05-30T16:12:41.160Z,8.03
2019-05-30T16:15:13.460Z,7.77
2019-05-30T16:17:43.984Z,8.53
2019-05-30T16:20:15.596Z,8.50
2019-05-30T16:22:46.744Z,7.57
2019-05-30T16:25:17.748Z,7.80
2019-05-30T16:27:48.080Z,7.60
2019-05-30T16:30:22.463Z,8.63
2019-05-30T16:32:50.591Z,8.07
2019-05-30T16:35:22.176Z,8.60
2019-05-30T16:37:52.544Z,8.53
2019-05-30T16:40:24.038Z,8.60
2019-05-30T16:42:54.429Z,8.47
2019-05-30T16:45:25.244Z,8.70
2019-05-30T16:47:56.281Z,8.93
2019-05-30T16:50:27.035Z,9.07
2019-05-30T16:52:57.709Z,8.83
2019-05-30T16:55:28.149Z,8.87
2019-05-30T16:57:58.228Z,8.90
2019-05-30T17:00:29.068Z,9.47
2019-05-30T17:03:10.376Z,9.00
2019-05-30T17:05:40.823Z,8.60
2019-05-30T17:08:12.085Z,8.67
2019-05-30T17:10:42.656Z,9.17
2019-05-30T17:13:13.092Z,9.40
2019-05-30T17:15:43.288Z,8.93
2019-05-30T17:18:13.311Z,8.90
2019-05-30T17:20:43.295Z,10.07
2019-05-30T17:23:13.660Z,8.87
2019-05-30T17:25:43.636Z,9.60
2019-05-30T17:28:14.992Z,9.77
2019-05-30T17:30:45.349Z,9.60
2019-05-30T17:33:17.813Z,9.00
2019-05-30T17:35:47.970Z,9.90
2019-05-30T17:38:18.750Z,9.00
2019-05-30T17:40:49.763Z,9.80
2019-05-30T17:43:21.007Z,11.33
2019-05-30T17:45:51.223Z,9.43
2019-05-30T17:48:21.459Z,9.40
2019-05-30T17:50:51.956Z,10.57
2019-05-30T17:53:23.836Z,9.97
2019-05-30T17:55:54.167Z,9.63
2019-05-30T17:58:24.471Z,8.13
2019-05-30T18:00:57.055Z,10.30
2019-05-30T18:03:30.610Z,10.87
2019-05-30T18:06:02.194Z,9.57
2019-05-30T18:08:32.832Z,10.13
2019-05-30T18:11:15.970Z,9.43
2019-05-30T18:13:50.297Z,10.47
2019-05-30T18:16:21.136Z,9.80
2019-05-30T18:18:51.980Z,10.20
2019-05-30T18:21:23.421Z,9.23
2019-05-30T18:23:54.054Z,9.67
2019-05-30T18:26:25.435Z,10.10
2019-05-30T18:28:55.686Z,9.40
2019-05-30T18:31:26.142Z,10.53
2019-05-30T18:33:56.321Z,10.83
2019-05-30T18:36:26.347Z,9.10
2019-05-30T18:38:57.020Z,10.07
2019-05-30T18:41:28.478Z,9.83
2019-05-30T18:43:58.907Z,10.10
2019-05-30T18:46:29.346Z,10.23
2019-05-30T18:48:59.553Z,10.60
2019-05-30T18:51:30.359Z,10.43
2019-05-30T18:54:00.655Z,9.50
2019-05-30T18:56:31.124Z,9.33
2019-05-30T18:59:01.308Z,9.53
2019-05-30T19:01:31.811Z,10.47
2019-05-30T19:04:02.052Z,10.40
2019-05-30T19:06:33.782Z,9.67
2019-05-30T19:09:04.937Z,10.20
2019-05-30T19:11:36.586Z,10.37
2019-05-30T19:14:07.071Z,9.80
2019-05-30T19:16:37.629Z,10.80
2019-05-30T19:19:07.641Z,9.80
2019-05-30T19:21:37.776Z,10.13
2019-05-30T19:24:08.722Z,9.40
2019-05-30T19:26:38.738Z,10.30
2019-05-30T19:29:09.074Z,10.37
2019-05-30T19:31:39.367Z,10.43
2019-05-30T19:34:09.452Z,10.80
2019-05-30T19:36:39.559Z,11.20
2019-05-30T19:39:10.322Z,11.67
2019-05-30T19:41:56.327Z,12.47
2019-05-30T19:44:12.345Z,13.03
2019-05-30T19:46:42.860Z,13.43
2019-05-30T19:49:13.071Z,12.43
2019-05-30T19:51:43.177Z,12.00
2019-05-30T19:54:13.467Z,13.30
2019-05-30T19:56:44.075Z,12.97
2019-05-30T19:59:13.986Z,13.30
2019-05-30T20:01:44.404Z,14.23
2019-05-30T20:04:14.731Z,14.60
2019-05-30T20:06:45.058Z,14.67
2019-05-30T20:09:15.138Z,14.33
2019-05-30T20:11:59.891Z,14.27
2019-05-30T20:14:17.271Z,16.20
2019-05-30T20:16:47.287Z,14.57
2019-05-30T20:19:17.332Z,14.27
2019-05-30T20:21:47.919Z,15.93
2019-05-30T20:24:19.327Z,14.30
2019-05-30T20:26:50.898Z,14.83
2019-05-30T20:29:25.673Z,14.87
2019-05-30T20:31:55.940Z,14.80
2019-05-30T20:34:26.564Z,14.40
2019-05-30T20:36:56.824Z,14.87
2019-05-30T20:39:26.979Z,14.03
2019-05-30T20:41:57.567Z,14.33
2019-05-30T20:44:27.641Z,14.53
2019-05-30T20:46:57.695Z,13.90
2019-05-30T20:49:28.051Z,14.10
2019-05-30T20:51:58.702Z,14.40
2019-05-30T20:54:28.793Z,14.20
2019-05-30T20:56:59.156Z,15.10
2019-05-30T20:59:29.571Z,13.80
2019-05-30T21:01:59.507Z,12.90
2019-05-30T21:04:29.609Z,11.83
2019-05-30T21:07:00.420Z,10.97
2019-05-30T21:09:31.345Z,11.30
2019-05-30T21:12:02.953Z,10.30
2019-05-30T21:14:35.561Z,10.70
2019-05-30T21:17:06.213Z,10.20
2019-05-30T21:19:37.557Z,9.67
2019-05-30T21:22:08.059Z,10.80
2019-05-30T21:24:38.601Z,9.50
2019-05-30T21:27:08.640Z,10.27
2019-05-30T21:29:38.962Z,8.90
2019-05-30T21:32:09.743Z,9.50
2019-05-30T21:34:40.465Z,9.07
2019-05-30T21:37:12.247Z,9.93
2019-05-30T21:39:43.978Z,9.30
2019-05-30T21:42:14.360Z,8.80
2019-05-30T21:44:49.017Z,9.47
2019-05-30T21:47:17.039Z,9.57
2019-05-30T21:49:47.129Z,9.73
2019-05-30T21:52:17.279Z,9.33
2019-05-30T21:54:47.939Z,9.43
2019-05-30T21:57:18.031Z,8.90
2019-05-30T21:59:48.955Z,9.07
2019-05-30T22:02:19.288Z,9.47
2019-05-30T22:04:49.192Z,9.60
2019-05-30T22:07:19.309Z,9.80
2019-05-30T22:09:50.002Z,7.97
2019-05-30T22:12:20.024Z,8.60
2019-05-30T22:14:50.126Z,9.00
2019-05-30T22:17:20.408Z,8.77
2019-05-30T22:19:50.325Z,8.13
2019-05-30T22:22:20.370Z,8.37
2019-05-30T22:24:52.345Z,7.80
2019-05-30T22:27:22.547Z,8.53
2019-05-30T22:29:52.717Z,8.10
2019-05-30T22:32:22.692Z,8.50
2019-05-30T22:34:53.111Z,7.90
2019-05-30T22:37:23.125Z,8.30
2019-05-30T22:39:53.961Z,8.07
2019-05-30T22:42:23.848Z,6.83
2019-05-30T22:44:54.071Z,8.00
2019-05-30T22:47:24.522Z,7.67
2019-05-30T22:49:54.851Z,7.30
2019-05-30T22:52:24.837Z,7.67
2019-05-30T22:54:55.002Z,7.50
2019-05-30T22:57:25.682Z,7.63
2019-05-30T22:59:55.649Z,7.60
2019-05-30T23:02:25.704Z,7.10
2019-05-30T23:04:56.419Z,7.13
2019-05-30T23:07:26.472Z,6.70
2019-05-30T23:09:56.611Z,7.10
2019-05-30T23:12:28.154Z,6.43
2019-05-30T23:14:58.672Z,6.93
2019-05-30T23:17:28.946Z,6.47
2019-05-30T23:19:58.917Z,6.30
2019-05-30T23:22:28.983Z,6.70
2019-05-30T23:24:59.164Z,6.10
2019-05-30T23:27:29.695Z,6.87
2019-05-30T23:29:59.740Z,6.63
2019-05-30T23:32:29.975Z,6.30
2019-05-30T23:35:00.084Z,6.20
2019-05-30T23:37:30.381Z,6.93
2019-05-30T23:40:00.491Z,6.63
2019-05-30T23:42:31.231Z,6.13
2019-05-30T23:45:01.377Z,6.90
2019-05-30T23:47:31.616Z,6.70
2019-05-30T23:50:01.760Z,6.20
2019-05-30T23:52:32.060Z,6.20
2019-05-30T23:55:02.541Z,6.40
2019-05-30T23:57:32.972Z,6.53
